Time;durP1;ratioP1;P1;durP2;ratioP2;P2;SDS_P1;SDS_P2;PMS_P1;PMS_P2;Temp;Humidity;BMP_temperature;BMP_pressure;BME280_temperature;BME280_humidity;BME280_pressure;Samples;Min_cycle;Max_cycle;Signal;HPM_P1;HPM_P2
2023/07/13 00:01:49;;;;;;;16.85;9.77;;;;;;;14.99;80.64;101289.53;5033217;28;20057;-69
2023/07/13 00:04:17;;;;;;;18.67;9.60;;;;;;;14.96;81.37;101296.56;5032049;28;20040;-68
2023/07/13 00:06:44;;;;;;;18.10;9.50;;;;;;;14.98;81.52;101299.84;5047487;28;20025;-68
2023/07/13 00:09:12;;;;;;;17.60;10.20;;;;;;;14.92;81.69;101300.34;5031058;28;20083;-67
2023/07/13 00:11:38;;;;;;;20.25;10.30;;;;;;;14.86;82.30;101307.19;5031447;28;20037;-67
2023/07/13 00:14:03;;;;;;;19.10;10.15;;;;;;;14.85;82.19;101300.81;5031183;28;20022;-67
2023/07/13 00:16:29;;;;;;;16.38;9.60;;;;;;;14.80;82.41;101292.59;5041869;28;20400;-67
2023/07/13 00:18:54;;;;;;;17.25;9.68;;;;;;;14.79;82.88;101294.56;5049470;28;20397;-67
2023/07/13 00:21:20;;;;;;;18.25;9.57;;;;;;;14.72;83.37;101296.16;5034282;28;20037;-67
2023/07/13 00:23:45;;;;;;;18.15;9.70;;;;;;;14.69;83.51;101294.06;5033773;28;20060;-67
2023/07/13 00:26:12;;;;;;;17.88;9.98;;;;;;;14.66;83.85;101290.75;5033164;28;20117;-67
2023/07/13 00:28:38;;;;;;;17.63;9.80;;;;;;;14.62;84.10;101298.09;5038673;28;20053;-67
2023/07/13 00:31:04;;;;;;;19.35;10.20;;;;;;;14.57;84.18;101297.41;5030407;28;20515;-67
2023/07/13 00:33:29;;;;;;;18.67;10.13;;;;;;;14.54;84.54;101292.50;5034860;28;20063;-68
2023/07/13 00:35:55;;;;;;;15.70;10.00;;;;;;;14.51;84.93;101297.56;5042721;28;20018;-68
2023/07/13 00:38:21;;;;;;;17.42;9.85;;;;;;;14.50;85.04;101292.31;5040596;28;20386;-69
2023/07/13 00:40:47;;;;;;;20.73;9.95;;;;;;;14.48;85.36;101300.97;5035220;28;20108;-68
2023/07/13 00:43:18;;;;;;;20.38;10.30;;;;;;;14.47;85.26;101302.13;5046300;28;20152;-69
2023/07/13 00:45:44;;;;;;;16.63;9.60;;;;;;;14.48;85.67;101298.19;5043384;28;20025;-68
2023/07/13 00:48:13;;;;;;;18.77;10.07;;;;;;;14.49;85.90;101301.81;5035885;28;20052;-67
2023/07/13 00:50:39;;;;;;;19.35;9.73;;;;;;;14.48;86.42;101300.97;5031389;28;20033;-68
2023/07/13 00:53:05;;;;;;;21.23;10.60;;;;;;;14.45;86.62;101311.94;5046130;28;20040;-67
2023/07/13 00:55:31;;;;;;;19.30;10.27;;;;;;;14.43;86.90;101303.94;5038331;28;20025;-68
2023/07/13 00:57:56;;;;;;;20.40;10.70;;;;;;;14.40;86.97;101312.09;5049159;28;20036;-68
2023/07/13 01:00:23;;;;;;;16.73;10.40;;;;;;;14.37;86.95;101309.94;5039425;28;20029;-68
2023/07/13 01:02:49;;;;;;;18.77;9.95;;;;;;;14.32;87.49;101308.13;5048460;28;20039;-68
2023/07/13 01:05:20;;;;;;;17.33;10.07;;;;;;;14.33;87.58;101309.78;5034350;28;20068;-68
2023/07/13 01:07:48;;;;;;;16.80;9.90;;;;;;;14.29;87.74;101304.03;5034230;28;20033;-68
2023/07/13 01:10:14;;;;;;;17.20;9.95;;;;;;;14.24;88.32;101309.72;5038298;28;20473;-68
2023/07/13 01:12:39;;;;;;;18.33;10.27;;;;;;;14.23;88.46;101307.25;5034172;28;20029;-68
2023/07/13 01:15:06;;;;;;;16.70;10.00;;;;;;;14.20;88.61;101298.41;5038242;28;20104;-68
2023/07/13 01:17:33;;;;;;;17.75;10.10;;;;;;;14.14;89.32;101294.13;5047173;28;20519;-68
2023/07/13 01:19:59;;;;;;;19.23;10.75;;;;;;;14.17;89.64;101310.16;5041070;28;20033;-68
2023/07/13 01:22:26;;;;;;;19.55;10.40;;;;;;;14.16;90.00;101304.94;5033737;28;20052;-68
2023/07/13 01:24:53;;;;;;;18.50;10.85;;;;;;;14.14;90.63;101321.13;5036209;28;20519;-68
2023/07/13 01:27:24;;;;;;;16.05;10.38;;;;;;;14.08;90.14;101314.88;5044987;28;20107;-69
2023/07/13 01:29:52;;;;;;;18.63;10.73;;;;;;;14.07;90.62;101315.19;5033693;28;20040;-68
2023/07/13 01:32:23;;;;;;;19.63;10.50;;;;;;;14.02;91.02;101313.38;5033880;28;20032;-68
2023/07/13 01:34:50;;;;;;;23.15;10.57;;;;;;;14.03;91.03;101317.78;5034939;28;20032;-68
2023/07/13 01:37:16;;;;;;;20.05;10.25;;;;;;;14.00;91.54;101316.47;5052270;28;20036;-67
2023/07/13 01:39:41;;;;;;;20.50;10.50;;;;;;;13.97;92.08;101319.88;5043594;28;20033;-68
2023/07/13 01:42:07;;;;;;;19.33;10.32;;;;;;;13.94;92.74;101314.94;5051808;28;20021;-68
2023/07/13 01:44:33;;;;;;;18.75;10.50;;;;;;;13.93;92.51;101318.06;5044013;28;20044;-68
2023/07/13 01:46:58;;;;;;;17.40;10.32;;;;;;;13.93;92.79;101312.50;5053391;28;20491;-68
2023/07/13 01:49:23;;;;;;;17.52;10.93;;;;;;;13.91;93.02;101326.72;5050476;28;20473;-68
2023/07/13 01:51:49;;;;;;;18.40;10.70;;;;;;;13.91;93.13;101320.31;5053346;28;20055;-68
2023/07/13 01:54:14;;;;;;;19.60;10.80;;;;;;;13.92;93.73;101321.97;5040249;28;20033;-68
2023/07/13 01:56:41;;;;;;;20.40;10.60;;;;;;;13.87;94.28;101315.41;5035350;28;20052;-68
2023/07/13 01:59:07;;;;;;;16.80;10.68;;;;;;;13.88;94.31;101325.41;5033011;28;20367;-68
2023/07/13 02:01:32;;;;;;;20.92;11.07;;;;;;;13.92;94.10;101328.38;5040783;28;20037;-68
2023/07/13 02:03:58;;;;;;;24.60;11.68;;;;;;;13.88;94.00;101316.22;5033122;28;20029;-68
2023/07/13 02:06:23;;;;;;;20.30;10.63;;;;;;;13.85;94.53;101330.75;5034388;28;20060;-68
2023/07/13 02:08:49;;;;;;;18.50;10.82;;;;;;;13.81;94.61;101322.22;5034681;28;20092;-68
2023/07/13 02:11:14;;;;;;;17.63;10.40;;;;;;;13.78;95.21;101313.69;5043162;28;20338;-68
2023/07/13 02:13:39;;;;;;;19.80;10.73;;;;;;;13.77;95.40;101326.81;5035240;28;20380;-68
2023/07/13 02:16:06;;;;;;;19.33;11.35;;;;;;;13.75;95.41;101331.84;5033747;28;20355;-69
2023/07/13 02:18:31;;;;;;;20.45;10.90;;;;;;;13.69;95.91;101317.25;5044162;28;20039;-68
2023/07/13 02:20:57;;;;;;;20.20;11.07;;;;;;;13.69;96.29;101328.38;5033043;28;20124;-68
2023/07/13 02:23:22;;;;;;;18.23;10.75;;;;;;;13.67;96.13;101319.50;5034541;28;20033;-68
2023/07/13 02:25:48;;;;;;;17.83;10.85;;;;;;;13.64;96.53;101324.88;5032604;28;20076;-69
2023/07/13 02:28:13;;;;;;;17.98;11.23;;;;;;;13.61;96.76;101323.56;5042421;28;20477;-69
2023/07/13 02:30:38;;;;;;;19.35;11.32;;;;;;;13.60;97.00;101330.25;5039127;28;20041;-69
2023/07/13 02:33:04;;;;;;;20.17;10.73;;;;;;;13.59;97.11;101325.84;5032716;28;20431;-68
2023/07/13 02:35:30;;;;;;;17.85;10.98;;;;;;;13.59;97.37;101323.06;5035358;28;20022;-69
2023/07/13 02:37:56;;;;;;;18.40;10.75;;;;;;;13.56;97.67;101327.28;5042460;28;20047;-69
2023/07/13 02:40:22;;;;;;;19.30;11.10;;;;;;;13.51;98.32;101327.41;5050492;28;20106;-68
2023/07/13 02:42:47;;;;;;;20.02;11.63;;;;;;;13.52;98.43;101329.03;5040708;28;20034;-69
2023/07/13 02:45:13;;;;;;;18.60;11.55;;;;;;;13.49;98.50;101334.41;5032705;28;20021;-68
2023/07/13 02:47:41;;;;;;;18.80;11.90;;;;;;;13.47;99.11;101331.97;5045947;28;20128;-69
2023/07/13 02:50:07;;;;;;;19.45;11.38;;;;;;;13.49;99.00;101338.03;5045202;28;20087;-68
2023/07/13 02:52:32;;;;;;;20.38;12.27;;;;;;;13.48;99.70;101338.31;5038137;28;20104;-68
2023/07/13 02:54:58;;;;;;;20.13;12.25;;;;;;;13.43;99.58;101336.50;5032398;28;20112;-69
2023/07/13 02:57:23;;;;;;;20.15;11.88;;;;;;;13.37;99.76;101332.97;5040181;28;20033;-69
2023/07/13 02:59:49;;;;;;;20.77;11.98;;;;;;;13.38;100.00;101342.16;5046492;28;20040;-69
2023/07/13 03:02:15;;;;;;;22.58;11.95;;;;;;;13.35;100.00;101337.22;5046381;28;20835;-68
2023/07/13 03:04:41;;;;;;;21.15;12.23;;;;;;;13.28;100.00;101337.63;5032003;28;20181;-69
2023/07/13 03:07:07;;;;;;;20.27;12.63;;;;;;;13.26;100.00;101337.94;5039305;28;20030;-68
2023/07/13 03:09:34;;;;;;;19.25;12.23;;;;;;;13.26;100.00;101343.50;5042127;28;20044;-68
2023/07/13 03:11:59;;;;;;;20.63;12.13;;;;;;;13.21;100.00;101334.47;5031930;28;20052;-67
2023/07/13 03:14:25;;;;;;;19.90;11.82;;;;;;;13.20;100.00;101339.22;5051282;28;20464;-68
2023/07/13 03:16:51;;;;;;;20.77;12.23;;;;;;;13.16;100.00;101340.97;5051642;28;20388;-68
2023/07/13 03:19:17;;;;;;;22.23;11.68;;;;;;;13.13;100.00;101344.34;5034771;28;20037;-68
2023/07/13 03:21:43;;;;;;;19.63;12.00;;;;;;;13.14;100.00;101336.84;5031925;28;20048;-68
2023/07/13 03:24:08;;;;;;;20.30;12.00;;;;;;;13.10;100.00;101336.66;5037083;28;20029;-68
2023/07/13 03:26:34;;;;;;;19.33;11.98;;;;;;;13.09;100.00;101337.78;5051626;28;20055;-68
2023/07/13 03:28:59;;;;;;;21.30;12.00;;;;;;;13.06;100.00;101342.00;5050900;28;20032;-68
2023/07/13 03:31:28;;;;;;;21.63;12.52;;;;;;;13.03;100.00;101339.03;5033076;28;20060;-68
2023/07/13 03:33:55;;;;;;;20.25;12.82;;;;;;;13.05;100.00;101343.16;5035329;28;20101;-67
2023/07/13 03:36:24;;;;;;;20.23;13.35;;;;;;;12.99;100.00;101335.22;5035862;28;20033;-67
2023/07/13 03:38:55;;;;;;;22.73;12.20;;;;;;;13.00;100.00;101350.75;5048257;28;20037;-69
2023/07/13 03:41:22;;;;;;;21.00;12.23;;;;;;;13.02;100.00;101351.28;5032553;28;20052;-69
2023/07/13 03:43:50;;;;;;;21.30;12.93;;;;;;;13.03;100.00;101356.50;5046300;28;20029;-69
2023/07/13 03:46:16;;;;;;;21.27;12.30;;;;;;;13.01;100.00;101361.53;5046391;28;20030;-68
2023/07/13 03:48:44;;;;;;;20.92;12.30;;;;;;;13.00;100.00;101356.31;5045266;28;20035;-69
2023/07/13 03:51:10;;;;;;;21.95;11.73;;;;;;;13.00;100.00;101356.31;5044503;28;20017;-69
2023/07/13 03:53:41;;;;;;;24.38;11.82;;;;;;;13.04;100.00;101365.66;5035243;28;20541;-69
2023/07/13 03:56:07;;;;;;;20.48;11.05;;;;;;;13.03;100.00;101364.03;5046732;28;20031;-68
2023/07/13 03:58:35;;;;;;;24.33;12.05;;;;;;;13.05;100.00;101370.06;5034153;28;20113;-68
2023/07/13 04:01:02;;;;;;;22.05;11.48;;;;;;;13.09;100.00;101371.94;5048149;28;20052;-68
2023/07/13 04:03:29;;;;;;;22.15;11.20;;;;;;;13.10;100.00;101370.78;5040806;28;20030;-68
2023/07/13 04:05:59;;;;;;;20.20;11.15;;;;;;;13.18;100.00;101371.19;5034752;28;20032;-68
2023/07/13 04:08:28;;;;;;;20.52;11.20;;;;;;;13.17;100.00;101373.16;5039124;28;20033;-68
2023/07/13 04:10:54;;;;;;;18.88;11.20;;;;;;;13.17;100.00;101384.28;5040312;28;20116;-68
2023/07/13 04:13:19;;;;;;;23.55;10.63;;;;;;;13.23;100.00;101380.25;5044527;28;20121;-68
2023/07/13 04:15:45;;;;;;;19.10;10.40;;;;;;;13.26;100.00;101382.41;5031431;28;20108;-68
2023/07/13 04:18:10;;;;;;;21.70;11.13;;;;;;;13.33;100.00;101386.72;5041840;28;20437;-68
2023/07/13 04:20:36;;;;;;;21.00;10.75;;;;;;;13.38;100.00;101392.97;5046890;28;20042;-69
2023/07/13 04:23:01;;;;;;;21.17;10.35;;;;;;;13.46;100.00;101387.88;5041487;28;20025;-68
2023/07/13 04:25:27;;;;;;;22.42;11.40;;;;;;;13.53;100.00;101391.03;5036405;28;20099;-68
2023/07/13 04:27:53;;;;;;;21.05;11.40;;;;;;;13.58;100.00;101393.69;5037997;28;20025;-68
2023/07/13 04:30:19;;;;;;;23.17;11.25;;;;;;;13.61;100.00;101387.50;5046528;28;20026;-67
2023/07/13 04:32:45;;;;;;;22.05;11.20;;;;;;;13.65;100.00;101388.50;5046293;28;20487;-67
2023/07/13 04:35:11;;;;;;;20.23;11.02;;;;;;;13.73;100.00;101393.34;5038381;28;20025;-68
2023/07/13 04:37:36;;;;;;;20.50;10.68;;;;;;;13.78;100.00;101391.56;5039223;28;20048;-68
2023/07/13 04:40:03;;;;;;;22.48;10.90;;;;;;;13.84;100.00;101399.47;5049703;28;20029;-67
2023/07/13 04:42:29;;;;;;;19.45;10.90;;;;;;;13.96;100.00;101403.66;5042739;28;20033;-67
2023/07/13 04:44:55;;;;;;;22.48;12.20;;;;;;;14.00;100.00;101404.66;5035303;28;20040;-68
2023/07/13 04:47:20;;;;;;;23.13;11.82;;;;;;;14.06;100.00;101399.78;5049602;28;20021;-67
2023/07/13 04:49:46;;;;;;;22.92;12.45;;;;;;;14.10;100.00;101406.38;5052060;28;20033;-67
2023/07/13 04:52:12;;;;;;;21.80;12.20;;;;;;;14.14;100.00;101405.44;5043642;28;20633;-67
2023/07/13 04:54:38;;;;;;;25.23;13.23;;;;;;;14.19;100.00;101408.06;5052413;28;20061;-67
2023/07/13 04:57:06;;;;;;;25.70;13.35;;;;;;;14.26;100.00;101412.38;5044878;28;20036;-68
2023/07/13 04:59:34;;;;;;;26.67;13.57;;;;;;;14.32;100.00;101416.66;5034526;28;20408;-68
2023/07/13 05:02:01;;;;;;;26.67;13.82;;;;;;;14.37;100.00;101399.81;5036091;28;20025;-66
2023/07/13 05:04:26;;;;;;;25.52;13.88;;;;;;;14.45;100.00;101403.81;5036739;28;20037;-68
2023/07/13 05:06:52;;;;;;;26.92;13.73;;;;;;;14.53;100.00;101400.25;5040160;28;20520;-67
2023/07/13 05:09:17;;;;;;;27.05;15.25;;;;;;;14.63;100.00;101415.88;5053867;28;20033;-67
2023/07/13 05:11:44;;;;;;;25.17;14.23;;;;;;;14.72;100.00;101405.63;5044878;28;20112;-68
2023/07/13 05:14:09;;;;;;;24.85;14.85;;;;;;;14.80;100.00;101415.13;5035729;28;20143;-67
2023/07/13 05:16:35;;;;;;;27.85;15.57;;;;;;;14.86;100.00;101415.81;5034333;28;20022;-67
2023/07/13 05:19:01;;;;;;;27.60;16.08;;;;;;;14.90;100.00;101419.63;5039902;28;20037;-67
2023/07/13 05:21:27;;;;;;;25.50;15.43;;;;;;;14.96;100.00;101419.16;5039331;28;20026;-67
2023/07/13 05:23:52;;;;;;;29.98;17.42;;;;;;;15.03;100.00;101424.22;5046280;28;20108;-67
2023/07/13 05:26:17;;;;;;;32.33;16.48;;;;;;;15.11;100.00;101425.41;5037218;28;20442;-68
2023/07/13 05:28:43;;;;;;;31.20;16.35;;;;;;;15.21;100.00;101427.09;5033483;28;20033;-68
2023/07/13 05:31:09;;;;;;;28.00;16.55;;;;;;;15.27;100.00;101434.97;5047048;28;20120;-68
2023/07/13 05:33:35;;;;;;;30.33;16.98;;;;;;;15.29;100.00;101429.09;5043927;28;20021;-68
2023/07/13 05:36:00;;;;;;;35.75;18.27;;;;;;;15.36;100.00;101435.00;5045136;28;20380;-68
2023/07/13 05:38:26;;;;;;;29.05;17.35;;;;;;;15.45;100.00;101429.44;5053743;28;20032;-68
2023/07/13 05:40:55;;;;;;;32.28;18.17;;;;;;;15.48;100.00;101434.38;5032705;28;20044;-69
2023/07/13 05:43:20;;;;;;;29.50;17.95;;;;;;;15.60;100.00;101442.09;5049689;28;20197;-68
2023/07/13 05:45:45;;;;;;;34.70;19.27;;;;;;;15.64;100.00;101439.47;5036571;28;20029;-69
2023/07/13 05:48:11;;;;;;;30.92;18.83;;;;;;;15.67;100.00;101433.25;5036137;28;20116;-69
2023/07/13 05:50:36;;;;;;;34.00;19.08;;;;;;;15.72;100.00;101433.91;5047951;28;20120;-68
2023/07/13 05:53:02;;;;;;;31.30;19.08;;;;;;;15.75;100.00;101447.19;5053325;28;20025;-69
2023/07/13 05:55:28;;;;;;;31.17;18.33;;;;;;;15.82;100.00;101441.09;5049545;28;20461;-69
2023/07/13 05:57:53;;;;;;;32.08;19.17;;;;;;;15.91;100.00;101443.94;5033240;28;20033;-68
2023/07/13 06:00:19;;;;;;;32.65;18.17;;;;;;;15.97;100.00;101448.22;5043856;28;20025;-68
2023/07/13 06:02:44;;;;;;;31.45;18.92;;;;;;;15.97;100.00;101453.78;5033635;28;20517;-68
2023/07/13 06:05:09;;;;;;;29.15;19.73;;;;;;;15.95;100.00;101456.09;5040136;28;20155;-69
2023/07/13 06:07:35;;;;;;;31.00;18.17;;;;;;;15.96;100.00;101456.91;5050654;28;20025;-69
2023/07/13 06:10:00;;;;;;;30.73;18.92;;;;;;;15.96;100.00;101460.53;5052569;28;20025;-69
2023/07/13 06:12:26;;;;;;;31.30;19.33;;;;;;;16.00;100.00;101460.69;5048375;28;20033;-69
2023/07/13 06:14:52;;;;;;;33.45;20.08;;;;;;;16.06;100.00;101467.75;5032975;28;20052;-68
2023/07/13 06:17:17;;;;;;;31.30;19.00;;;;;;;16.14;100.00;101469.72;5033797;28;20041;-68
2023/07/13 06:19:43;;;;;;;31.33;19.70;;;;;;;16.17;100.00;101476.59;5043172;28;20040;-69
2023/07/13 06:22:08;;;;;;;32.22;20.02;;;;;;;16.19;100.00;101466.78;5052890;28;20021;-68
2023/07/13 06:24:34;;;;;;;32.38;19.70;;;;;;;16.22;100.00;101468.06;5040566;28;20036;-69
2023/07/13 06:26:59;;;;;;;29.85;19.25;;;;;;;16.29;100.00;101473.97;5049915;28;20507;-68
2023/07/13 06:29:24;;;;;;;32.35;20.65;;;;;;;16.47;99.80;101479.53;5048799;28;20028;-68
2023/07/13 06:31:50;;;;;;;30.48;19.73;;;;;;;16.62;99.36;101467.84;5052562;28;20519;-69
2023/07/13 06:34:15;;;;;;;29.55;18.92;;;;;;;16.75;97.99;101467.97;5040114;28;20029;-69
2023/07/13 06:36:41;;;;;;;32.58;19.85;;;;;;;16.87;97.14;101473.69;5041013;28;20040;-69
2023/07/13 06:39:07;;;;;;;30.30;18.70;;;;;;;16.90;96.70;101475.00;5049615;28;20465;-69
2023/07/13 06:41:33;;;;;;;29.75;19.00;;;;;;;16.92;96.38;101481.88;5040210;28;20036;-69
2023/07/13 06:43:58;;;;;;;30.10;18.77;;;;;;;16.96;96.38;101480.09;5046604;28;20028;-69
2023/07/13 06:46:24;;;;;;;32.92;19.23;;;;;;;17.11;95.83;101486.28;5042627;28;20057;-68
2023/07/13 06:48:50;;;;;;;32.90;19.40;;;;;;;17.23;94.87;101486.38;5035905;28;20492;-69
2023/07/13 06:51:16;;;;;;;28.58;18.27;;;;;;;17.29;93.62;101481.44;5032097;28;20404;-69
2023/07/13 06:53:43;;;;;;;32.40;19.45;;;;;;;17.39;93.63;101485.81;5050112;28;20063;-69
2023/07/13 06:56:10;;;;;;;31.80;18.70;;;;;;;17.40;93.03;101490.25;5038779;28;20111;-67
2023/07/13 06:58:35;;;;;;;31.67;19.48;;;;;;;17.44;92.94;101491.22;5042720;28;20106;-67
2023/07/13 07:01:01;;;;;;;30.17;18.17;;;;;;;17.46;92.55;101492.53;5051446;28;20036;-72
2023/07/13 07:03:26;;;;;;;30.10;18.40;;;;;;;17.52;92.14;101495.16;5034062;28;20029;-73
2023/07/13 07:05:52;;;;;;;29.58;18.20;;;;;;;17.49;92.10;101491.03;5031466;28;20029;-71
2023/07/13 07:08:17;;;;;;;31.85;19.20;;;;;;;17.51;92.00;101496.28;5032498;28;20059;-70
2023/07/13 07:10:42;;;;;;;28.75;18.38;;;;;;;17.46;92.40;101500.91;5040031;28;20465;-68
2023/07/13 07:13:08;;;;;;;30.90;19.92;;;;;;;17.41;93.26;101500.28;5039174;28;20432;-69
2023/07/13 07:15:35;;;;;;;30.98;18.67;;;;;;;17.41;93.06;101500.28;5040932;28;20025;-68
2023/07/13 07:18:00;;;;;;;29.88;18.35;;;;;;;17.45;92.44;101501.25;5032876;28;20033;-70
2023/07/13 07:20:26;;;;;;;30.42;18.45;;;;;;;17.46;92.47;101502.91;5038010;28;20120;-69
2023/07/13 07:22:52;;;;;;;30.40;17.88;;;;;;;17.52;92.51;101503.53;5049382;28;20037;-69
2023/07/13 07:25:17;;;;;;;31.00;18.38;;;;;;;17.55;92.38;101498.09;5050626;28;20039;-69
2023/07/13 07:27:43;;;;;;;30.02;18.05;;;;;;;17.56;91.48;101502.53;5050007;28;20118;-69
2023/07/13 07:30:11;;;;;;;27.83;18.02;;;;;;;17.64;91.79;101502.81;5050137;28;20513;-70
2023/07/13 07:32:36;;;;;;;33.78;18.70;;;;;;;17.73;91.75;101500.75;5050531;28;20029;-69
2023/07/13 07:35:02;;;;;;;29.70;18.23;;;;;;;17.84;91.75;101503.97;5050018;28;20091;-69
2023/07/13 07:37:27;;;;;;;28.23;18.30;;;;;;;17.98;90.37;101512.13;5049106;28;20439;-68
2023/07/13 07:39:52;;;;;;;30.10;18.75;;;;;;;18.11;89.02;101515.81;5050412;28;20481;-69
2023/07/13 07:42:18;;;;;;;28.30;17.48;;;;;;;18.18;88.88;101510.50;5050507;28;20033;-68
2023/07/13 07:44:43;;;;;;;29.05;18.30;;;;;;;18.17;87.59;101517.28;5050597;28;20029;-70
2023/07/13 07:47:09;;;;;;;24.92;16.55;;;;;;;18.16;88.14;101519.25;5050786;28;20056;-69
2023/07/13 07:49:36;;;;;;;30.38;17.98;;;;;;;18.19;87.93;101514.94;5050291;28;20031;-71
2023/07/13 07:52:02;;;;;;;30.75;18.02;;;;;;;18.34;87.74;101517.13;5050356;28;20031;-71
2023/07/13 07:54:27;;;;;;;24.65;16.40;;;;;;;18.42;87.03;101521.00;5049254;28;20029;-72
2023/07/13 07:56:52;;;;;;;26.50;16.83;;;;;;;18.39;86.59;101519.69;5048208;28;20087;-68
2023/07/13 07:59:19;;;;;;;26.27;17.17;;;;;;;18.49;86.14;101521.28;5039574;28;20029;-70
2023/07/13 08:01:46;;;;;;;27.98;17.27;;;;;;;18.51;85.69;101518.94;5050890;28;20025;-68
2023/07/13 08:04:11;;;;;;;28.10;18.45;;;;;;;18.41;84.83;101516.56;5049995;28;20025;-70
2023/07/13 08:06:37;;;;;;;29.67;17.05;;;;;;;18.41;85.82;101516.56;5049730;28;20120;-70
2023/07/13 08:09:04;;;;;;;26.70;16.13;;;;;;;18.57;84.94;101519.53;5051058;28;20133;-69
2023/07/13 08:11:29;;;;;;;24.55;15.85;;;;;;;18.66;83.14;101523.06;5051134;28;20029;-69
2023/07/13 08:13:55;;;;;;;25.17;15.60;;;;;;;18.68;81.71;101526.34;5049750;28;20500;-70
2023/07/13 08:16:21;;;;;;;24.33;15.98;;;;;;;18.70;81.00;101528.81;5049947;28;20052;-69
2023/07/13 08:18:47;;;;;;;25.60;16.42;;;;;;;18.71;81.76;101528.47;5048525;28;20028;-68
2023/07/13 08:21:12;;;;;;;26.92;16.00;;;;;;;18.78;81.76;101530.72;5047715;28;20033;-68
2023/07/13 08:23:38;;;;;;;24.92;15.73;;;;;;;18.97;81.98;101526.59;5049249;28;20461;-69
2023/07/13 08:26:04;;;;;;;27.65;16.13;;;;;;;19.11;81.82;101526.25;5047152;28;20053;-68
2023/07/13 08:28:30;;;;;;;23.65;13.75;;;;;;;19.19;78.91;101519.72;5048832;28;20025;-68
2023/07/13 08:31:01;;;;;;;24.85;14.90;;;;;;;19.36;78.01;101523.47;5049760;28;20389;-69
2023/07/13 08:33:26;;;;;;;23.70;14.65;;;;;;;19.50;76.70;101529.56;5050536;28;20124;-70
2023/07/13 08:35:52;;;;;;;23.63;14.23;;;;;;;19.69;76.72;101520.53;5050767;28;20036;-71
2023/07/13 08:38:18;;;;;;;25.38;15.45;;;;;;;20.02;76.16;101524.34;5050987;28;20021;-71
2023/07/13 08:40:44;;;;;;;24.15;14.88;;;;;;;20.26;72.99;101518.66;5050852;28;20409;-70
2023/07/13 08:43:16;;;;;;;24.33;14.50;;;;;;;20.36;72.68;101517.34;5051168;28;20040;-70
2023/07/13 08:45:54;;;;;;;21.08;13.60;;;;;;;20.27;71.92;101511.88;5050856;28;20033;-70
2023/07/13 08:48:30;;;;;;;22.23;14.40;;;;;;;20.30;72.61;101523.56;5050735;28;20198;-68
2023/07/13 08:51:11;;;;;;;24.33;13.90;;;;;;;20.37;73.22;101519.00;5050803;28;20086;-70
2023/07/13 08:53:45;;;;;;;22.05;13.23;;;;;;;20.47;70.27;101514.84;5050809;28;20047;-69
2023/07/13 08:56:16;;;;;;;;;;;;;;;20.60;68.54;101517.59;5051138;28;20133;-69
2023/07/13 08:58:42;;;;;;;22.83;14.07;;;;;;;20.45;67.80;101519.19;5050672;28;20380;-69
2023/07/13 09:01:32;;;;;;;22.15;14.10;;;;;;;20.35;68.51;101523.34;5050717;28;20025;-68
2023/07/13 09:04:13;;;;;;;20.83;13.52;;;;;;;20.34;69.08;101510.47;5050581;28;20036;-71
2023/07/13 09:06:49;;;;;;;21.08;13.80;;;;;;;20.41;68.66;101524.72;5050561;28;20025;-71
2023/07/13 09:09:25;;;;;;;22.23;14.52;;;;;;;20.46;68.52;101515.22;5050663;28;20108;-69
2023/07/13 09:12:13;;;;;;;21.88;15.05;;;;;;;20.68;67.52;101511.81;5050572;28;20118;-70
2023/07/13 09:14:43;;;;;;;22.70;14.23;;;;;;;20.86;66.40;101512.31;5051910;28;20396;-70
2023/07/13 09:17:19;;;;;;;21.63;14.20;;;;;;;20.84;67.67;101513.88;5054247;28;20043;-69
2023/07/13 09:19:53;;;;;;;21.40;14.57;;;;;;;20.71;67.54;101518.72;5054181;28;20123;-70
2023/07/13 09:22:21;;;;;;;23.05;14.85;;;;;;;20.77;67.23;101511.66;5052789;28;20036;-70
2023/07/13 09:25:26;;;;;;;21.98;14.07;;;;;;;20.91;67.66;101508.44;5053882;28;20025;-68
2023/07/13 09:27:56;;;;;;;21.17;14.30;;;;;;;20.93;67.24;101511.69;5054080;28;20128;-69
2023/07/13 09:30:33;;;;;;;23.10;14.50;;;;;;;21.16;66.26;101500.63;5053957;28;20033;-71
2023/07/13 09:32:58;;;;;;;22.70;14.77;;;;;;;21.33;64.48;101507.06;5054024;28;20508;-70
2023/07/13 09:35:32;;;;;;;22.20;14.07;;;;;;;21.33;63.59;101504.25;5053871;28;20136;-70
2023/07/13 09:38:12;;;;;;;22.30;14.50;;;;;;;21.58;63.54;101513.34;5054039;28;20028;-71
2023/07/13 09:40:44;;;;;;;23.25;14.57;;;;;;;21.64;61.67;101517.50;5053915;28;20147;-70
2023/07/13 09:43:15;;;;;;;21.10;14.63;;;;;;;21.51;62.70;101501.88;5053762;28;20028;-68
2023/07/13 09:45:40;;;;;;;22.42;14.43;;;;;;;21.50;62.29;101509.50;5053648;28;20056;-71
2023/07/13 09:48:11;;;;;;;25.08;14.85;;;;;;;21.58;63.01;101504.88;5053669;28;20472;-69
2023/07/13 09:50:36;;;;;;;21.83;13.63;;;;;;;21.70;62.15;101515.22;5053454;28;20029;-70
2023/07/13 09:53:03;;;;;;;24.15;13.75;;;;;;;21.73;62.13;101510.84;5053706;28;20029;-69
2023/07/13 09:55:34;;;;;;;21.15;14.00;;;;;;;21.85;61.21;101513.53;5053918;28;20029;-69
2023/07/13 09:58:22;;;;;;;21.38;14.00;;;;;;;21.92;61.65;101513.69;5053458;28;20029;-68
2023/07/13 10:00:57;;;;;;;23.42;14.48;;;;;;;22.16;61.58;101508.16;5053552;28;20036;-69
2023/07/13 10:03:25;;;;;;;22.08;12.82;;;;;;;22.05;59.59;101505.94;5053506;28;20465;-69
2023/07/13 10:05:52;;;;;;;21.77;13.65;;;;;;;21.97;59.06;101507.78;5053205;28;20021;-69
2023/07/13 10:08:24;;;;;;;21.30;13.02;;;;;;;22.08;59.61;101507.19;5051650;28;20024;-69
2023/07/13 10:11:11;;;;;;;20.73;13.07;;;;;;;22.33;59.92;101509.72;5053129;28;20055;-71
2023/07/13 10:13:42;;;;;;;22.50;13.45;;;;;;;22.33;57.86;101510.56;5053169;28;20282;-70
2023/07/13 10:16:09;;;;;;;20.35;12.70;;;;;;;22.48;58.50;101522.97;5051501;28;20032;-69
2023/07/13 10:18:39;;;;;;;19.65;11.98;;;;;;;22.43;58.65;101515.59;5052957;28;20033;-70
2023/07/13 10:21:18;;;;;;;19.52;12.32;;;;;;;22.31;58.33;101515.75;5052889;28;20037;-69
2023/07/13 10:23:47;;;;;;;19.17;12.20;;;;;;;22.14;59.26;101514.16;5053057;28;20021;-69
2023/07/13 10:26:19;;;;;;;19.75;12.10;;;;;;;22.07;59.11;101525.28;5052089;28;20405;-70
2023/07/13 10:28:51;;;;;;;20.85;12.45;;;;;;;22.03;59.21;101525.22;5052797;28;20033;-69
2023/07/13 10:31:17;;;;;;;22.00;12.20;;;;;;;22.08;59.04;101519.28;5051416;28;20066;-69
2023/07/13 10:33:42;;;;;;;19.25;11.25;;;;;;;22.18;58.26;101522.69;5052799;28;20056;-70
2023/07/13 10:36:42;;;;;;;20.40;11.75;;;;;;;22.47;59.00;101524.16;5052604;28;20036;-69
2023/07/13 10:39:16;;;;;;;21.30;12.60;;;;;;;22.71;57.21;101516.53;5040480;28;20047;-71
2023/07/13 10:41:42;;;;;;;;;;;;;;;22.96;56.99;101517.00;5053143;28;20477;-70
2023/07/13 10:44:18;;;;;;;17.17;11.10;;;;;;;22.56;55.56;101513.47;5052669;28;20411;-69
2023/07/13 10:46:44;;;;;;;19.08;10.93;;;;;;;22.63;55.02;101517.59;5052805;28;20056;-70
2023/07/13 10:49:11;;;;;;;18.73;11.10;;;;;;;22.65;55.51;101518.84;5052666;28;20025;-70
2023/07/13 10:51:37;;;;;;;20.77;12.18;;;;;;;22.85;55.60;101524.44;5052635;28;20029;-70
2023/07/13 10:54:16;;;;;;;20.73;11.60;;;;;;;23.04;55.76;101538.50;5052592;28;20394;-70
2023/07/13 10:56:46;;;;;;;19.90;13.30;;;;;;;22.87;57.09;101553.09;5052792;28;20021;-72
2023/07/13 10:59:17;;;;;;;19.88;12.10;;;;;;;22.84;57.37;101536.91;5052983;28;20073;-71
2023/07/13 11:02:07;;;;;;;18.98;11.77;;;;;;;23.03;57.79;101553.00;5051689;28;20572;-70
2023/07/13 11:04:53;;;;;;;20.30;12.50;;;;;;;23.31;57.44;101557.53;5052966;28;20036;-70
2023/07/13 11:08:02;;;;;;;21.10;10.88;;;;;;;23.38;55.96;101568.16;5052991;28;20037;-70
2023/07/13 11:10:55;;;;;;;21.10;11.15;;;;;;;23.55;56.27;101561.97;5047034;28;20079;-71